Aeroporto :
LOGIN :

Iscrizione | Disclaimer

   EN    FR    IT 

 










Sommario :    VFR   VFR Marginale   IFR   IFR Intensivo   IFR Molto Intensivo
Visibilità : 
Base nubi : 
>= 8 km
>= 3000ft
5 / 8 km
1000 / 3000 ft
1500m / 5 km
500 / 1000 ft
800 / 1500m
200 / 500 ft
< 800m
< 200 ft
Simboli :   Temporali  Nebbia  Neve Forte  Precipitazioni Forti  Vento > 20 kt
SIGMETs :   Varie  Temporali  Ghiacco  Turbolenza  Onda orograficha  Ceneri Vulcaniche






- Altitudine del aeroporto : 0 ft


ENLA - Ula Platform

ULTIMO METAR :
  • 090120Z AUTO 33014KT 9999NDV SCT017/// BKN067/// 07/04 Q1024 W///S3

METARs OBSOLETI :
  • 090050Z AUTO 30013KT 9999NDV BKN068/// 07/04 Q1024 W///S3
  • 090020Z AUTO 30013KT 9999NDV BKN067/// 07/04 Q1024 W///S3
  • 082350Z AUTO 32011KT 9999NDV BKN055/// 06/04 Q1024 W///S3
  • 082320Z AUTO 33012KT 9999NDV OVC047/// 06/05 Q1024 W///S3
  • 082250Z AUTO 35013KT 9999NDV -SHRA OVC016/// 06/05 Q1023 W///S3
  • 082220Z AUTO 34017KT 9999NDV -RA BKN009/// 06/05 Q1023 W///S3

TAF N/A



MetMap, La meteo Aeronautica in un colpo d'occhio ! - Copyright ORBIFLY Dicembre 2007 - Disclaimer

ORBIFLY MET'MAP TEAM :

Programmazione e sviluppo : Alexandra Zaïnal
Concezione : Baudouin d'Aumeries
Aiuto per la programmazione : Marc-Olivier Méhu
Supporto tecnico e logistico : Manuel Goepfert
Aiuto per la traduzione : Arnaldo La Scala

Contatto : metmap@orbifly.com




FONTI E CREDITI :

   NOAA